createdAt,value
2022-09-28T00:11:00.382Z,10.80
2022-09-28T00:13:29.523Z,11.00
2022-09-28T00:16:05.688Z,10.90
2022-09-28T00:18:34.103Z,10.70
2022-09-28T00:21:04.929Z,10.40
2022-09-28T00:23:35.156Z,10.40
2022-09-28T00:26:03.957Z,10.50
2022-09-28T00:28:32.265Z,10.50
2022-09-28T00:31:00.903Z,10.40
2022-09-28T00:43:29.993Z,10.50
2022-09-28T00:46:02.790Z,10.60
2022-09-28T00:48:35.163Z,10.60
2022-09-28T00:51:07.400Z,10.50
2022-09-28T01:21:17.755Z,10.30
2022-09-28T01:24:10.330Z,10.30
2022-09-28T01:27:03.867Z,10.30
2022-09-28T01:29:47.065Z,10.30
2022-09-28T01:32:26.517Z,10.20
2022-09-28T01:35:00.611Z,10.20
2022-09-28T01:37:36.415Z,10.10
2022-09-28T01:40:08.202Z,10.10
2022-09-28T01:42:40.852Z,10.10
2022-09-28T01:45:15.348Z,10.10
2022-09-28T01:47:46.458Z,10.20
2022-09-28T01:50:17.351Z,10.20
2022-09-28T01:52:49.010Z,10.20
2022-09-28T01:55:22.097Z,10.20
2022-09-28T01:57:57.023Z,10.30
2022-09-28T02:00:26.687Z,10.30
2022-09-28T02:03:00.832Z,10.30
2022-09-28T02:05:33.113Z,10.20
2022-09-28T02:08:06.753Z,10.20
2022-09-28T02:10:41.149Z,10.20
2022-09-28T02:13:15.862Z,10.30
2022-09-28T02:15:47.118Z,10.40
2022-09-28T02:20:48.336Z,10.20
2022-09-28T02:23:17.941Z,10.40
2022-09-28T02:25:52.623Z,10.30
2022-09-28T02:28:22.127Z,10.30
2022-09-28T02:30:50.120Z,10.30
2022-09-28T02:33:21.558Z,10.30
2022-09-28T02:35:49.901Z,10.30
2022-09-28T02:38:18.200Z,10.50
2022-09-28T02:40:55.031Z,10.30
2022-09-28T02:43:29.051Z,10.30
2022-09-28T02:46:05.055Z,10.20
2022-09-28T02:49:10.686Z,10.20
2022-09-28T02:51:55.549Z,10.10
2022-09-28T02:54:48.437Z,10.20
2022-09-28T02:57:31.767Z,10.20
2022-09-28T03:00:08.477Z,10.20
2022-09-28T03:02:42.900Z,10.20
2022-09-28T03:05:19.832Z,10.10
2022-09-28T03:15:27.167Z,10.10
2022-09-28T03:40:36.658Z,10.00
2022-09-28T03:50:33.434Z,9.70
2022-09-28T03:53:05.217Z,9.70
2022-09-28T03:55:35.703Z,10.00
2022-09-28T03:58:03.726Z,9.50
2022-09-28T04:03:00.022Z,9.50
2022-09-28T04:05:29.375Z,9.40
2022-09-28T04:07:58.088Z,9.40
2022-09-28T04:10:26.445Z,9.40
2022-09-28T04:12:56.057Z,9.40
2022-09-28T04:15:24.588Z,9.50
2022-09-28T04:17:52.910Z,9.40
2022-09-28T04:20:21.037Z,9.40
2022-09-28T04:22:50.405Z,9.30
2022-09-28T04:25:18.496Z,9.50
2022-09-28T04:28:03.996Z,9.40
2022-09-28T04:30:32.021Z,9.40
2022-09-28T04:33:00.035Z,9.40
2022-09-28T04:35:28.006Z,9.40
2022-09-28T04:37:57.345Z,9.30
2022-09-28T04:40:25.408Z,9.40
2022-09-28T04:42:56.793Z,9.40
2022-09-28T04:45:26.267Z,9.40
2022-09-28T04:47:54.676Z,9.50
2022-09-28T04:50:22.952Z,9.30
2022-09-28T04:52:50.926Z,9.50
2022-09-28T04:55:20.705Z,9.30
2022-09-28T04:57:48.657Z,9.30
2022-09-28T05:00:17.290Z,9.40
2022-09-28T05:07:46.025Z,9.40
2022-09-28T05:12:46.612Z,9.10
2022-09-28T05:17:43.964Z,8.90
2022-09-28T05:30:11.462Z,8.80
2022-09-28T05:32:41.629Z,8.80
2022-09-28T05:35:11.114Z,8.70
2022-09-28T05:37:39.192Z,8.70
2022-09-28T05:40:08.456Z,8.70
2022-09-28T05:42:36.629Z,8.70
2022-09-28T05:45:06.240Z,8.90
2022-09-28T05:47:38.563Z,8.60
2022-09-28T05:50:07.971Z,8.60
2022-09-28T05:52:35.966Z,8.60
2022-09-28T05:55:04.027Z,8.60
2022-09-28T05:57:32.127Z,8.60
2022-09-28T06:00:00.237Z,8.50
2022-09-28T06:02:28.276Z,8.60
2022-09-28T06:04:57.699Z,8.60
2022-09-28T06:07:25.795Z,8.60
2022-09-28T06:09:53.940Z,8.60
2022-09-28T06:12:21.981Z,8.70
2022-09-28T06:14:50.247Z,8.70
2022-09-28T06:17:18.246Z,8.70
2022-09-28T06:19:46.264Z,8.80
2022-09-28T06:22:15.615Z,8.80
2022-09-28T06:24:43.611Z,8.80
2022-09-28T06:27:11.631Z,8.90
2022-09-28T06:29:39.606Z,9.00
2022-09-28T06:32:08.382Z,9.00
2022-09-28T06:34:36.438Z,9.00
2022-09-28T06:37:04.720Z,9.20
2022-09-28T06:39:34.103Z,9.20
2022-09-28T06:42:03.280Z,9.20
2022-09-28T06:44:32.311Z,9.30
2022-09-28T06:47:01.252Z,9.60
2022-09-28T06:51:58.252Z,9.80
2022-09-28T06:56:55.897Z,10.10
2022-09-28T06:59:24.063Z,10.20
2022-09-28T07:01:52.105Z,10.50
2022-09-28T07:04:20.142Z,10.50
2022-09-28T07:06:48.944Z,10.80
2022-09-28T07:09:31.703Z,11.00
2022-09-28T07:12:04.187Z,11.20
2022-09-28T07:14:47.026Z,11.70
2022-09-28T07:17:15.727Z,12.00
2022-09-28T07:19:44.498Z,11.90
2022-09-28T07:22:18.428Z,12.10
2022-09-28T07:24:47.874Z,12.20
2022-09-28T07:27:17.207Z,12.70
2022-09-28T07:29:45.227Z,12.90
2022-09-28T07:32:13.244Z,12.90
2022-09-28T07:34:43.882Z,13.60
2022-09-28T07:37:13.263Z,13.50
2022-09-28T07:39:55.366Z,13.60
2022-09-28T07:42:26.314Z,14.10
2022-09-28T07:44:54.544Z,14.20
2022-09-28T07:47:30.878Z,14.40
2022-09-28T07:50:01.935Z,14.80
2022-09-28T07:52:29.957Z,14.90
2022-09-28T07:54:57.955Z,15.10
2022-09-28T07:57:27.298Z,15.80
2022-09-28T07:59:55.692Z,16.00
2022-09-28T08:02:24.387Z,16.10
2022-09-28T08:04:52.504Z,16.20
2022-09-28T08:07:23.799Z,15.80
2022-09-28T08:09:52.206Z,16.00
2022-09-28T08:12:21.151Z,16.20
2022-09-28T08:14:52.255Z,16.50
2022-09-28T08:17:20.281Z,17.20
2022-09-28T08:20:05.875Z,17.80
2022-09-28T08:22:34.337Z,17.40
2022-09-28T08:25:02.304Z,16.70
2022-09-28T08:27:30.296Z,17.00
2022-09-28T08:29:59.649Z,17.90
2022-09-28T08:32:28.254Z,18.40
2022-09-28T08:34:57.055Z,18.90
2022-09-28T08:37:25.141Z,19.00
2022-09-28T08:42:33.999Z,18.90
2022-09-28T08:45:09.152Z,19.50
2022-09-28T08:48:02.405Z,18.30
2022-09-28T08:50:32.971Z,19.60
2022-09-28T08:53:08.353Z,20.40
2022-09-28T08:55:39.432Z,20.90
2022-09-28T08:58:14.528Z,20.70
2022-09-28T09:00:48.627Z,20.40
2022-09-28T09:03:20.742Z,20.50
2022-09-28T09:06:00.698Z,21.70
2022-09-28T09:08:42.417Z,20.40
2022-09-28T09:11:22.949Z,22.50
2022-09-28T09:14:10.454Z,20.50
2022-09-28T09:16:59.986Z,19.90
2022-09-28T09:22:11.480Z,20.70
2022-09-28T09:24:49.314Z,20.90
2022-09-28T09:27:37.995Z,21.10
2022-09-28T09:30:10.860Z,21.70
2022-09-28T09:33:11.370Z,22.00
2022-09-28T09:35:55.739Z,22.50
2022-09-28T09:38:40.733Z,22.20
2022-09-28T09:41:19.533Z,22.00
2022-09-28T09:44:11.711Z,22.70
2022-09-28T09:46:45.406Z,22.70
2022-09-28T09:49:20.728Z,22.60
2022-09-28T09:51:53.643Z,22.70
2022-09-28T09:54:26.718Z,22.50
2022-09-28T09:56:59.159Z,21.40
2022-09-28T09:59:33.633Z,21.70
2022-09-28T10:02:04.032Z,23.30
2022-09-28T10:04:38.642Z,23.80
2022-09-28T10:07:10.539Z,24.20
2022-09-28T10:09:43.986Z,24.60
2022-09-28T10:12:16.374Z,24.20
2022-09-28T10:14:44.425Z,24.00
2022-09-28T10:17:17.090Z,23.90
2022-09-28T10:19:46.775Z,24.10
2022-09-28T10:22:21.737Z,24.40
2022-09-28T10:24:53.135Z,24.20
2022-09-28T10:27:25.511Z,25.50
2022-09-28T10:29:56.370Z,25.80
2022-09-28T10:32:26.045Z,24.70
2022-09-28T10:35:14.400Z,24.60
2022-09-28T10:37:52.255Z,25.10
2022-09-28T10:40:31.171Z,24.90
2022-09-28T10:43:04.032Z,25.40
2022-09-28T10:45:37.150Z,24.60
2022-09-28T10:48:17.723Z,25.50
2022-09-28T10:51:00.202Z,26.00
2022-09-28T10:53:28.295Z,25.50
2022-09-28T10:56:02.035Z,25.50
2022-09-28T10:58:35.333Z,25.60
2022-09-28T11:01:09.329Z,25.20
2022-09-28T11:03:49.683Z,24.70
2022-09-28T11:06:26.056Z,25.40
2022-09-28T11:08:55.910Z,26.20
2022-09-28T11:11:24.643Z,26.20
2022-09-28T11:13:54.783Z,24.80
2022-09-28T11:16:26.375Z,23.90
2022-09-28T11:18:54.494Z,23.80
2022-09-28T11:21:27.236Z,23.40
2022-09-28T11:24:07.262Z,22.40
2022-09-28T11:26:43.985Z,22.40
2022-09-28T11:29:27.838Z,22.10
2022-09-28T11:32:01.658Z,21.90
2022-09-28T11:34:54.949Z,22.00
2022-09-28T11:37:43.424Z,21.90
2022-09-28T11:40:27.940Z,21.90
2022-09-28T11:43:08.292Z,21.60
2022-09-28T11:45:48.435Z,21.50
2022-09-28T11:48:19.562Z,21.30
2022-09-28T11:50:51.519Z,21.40
2022-09-28T11:53:26.157Z,21.60
2022-09-28T11:55:59.698Z,22.50
2022-09-28T11:58:32.243Z,21.30
2022-09-28T12:01:05.388Z,21.10
2022-09-28T12:03:40.581Z,21.10
2022-09-28T12:08:44.902Z,20.60
2022-09-28T12:11:18.837Z,20.60
2022-09-28T12:13:48.797Z,20.50
2022-09-28T12:19:18.009Z,20.10
2022-09-28T12:21:51.193Z,19.60
2022-09-28T12:24:26.150Z,19.50
2022-09-28T12:26:59.284Z,19.30
2022-09-28T12:29:34.450Z,19.30
2022-09-28T12:32:11.390Z,19.20
2022-09-28T12:37:23.100Z,18.50
2022-09-28T12:40:07.128Z,18.40
2022-09-28T12:42:53.952Z,18.40
2022-09-28T12:45:53.183Z,18.00
2022-09-28T12:48:37.526Z,18.10
2022-09-28T12:51:19.645Z,17.70
2022-09-28T12:54:05.239Z,17.70
2022-09-28T12:56:43.259Z,17.50
2022-09-28T12:59:23.141Z,17.40
2022-09-28T13:02:31.971Z,17.20
2022-09-28T13:05:17.720Z,17.30
2022-09-28T13:07:53.916Z,17.30
2022-09-28T13:10:32.702Z,17.30
2022-09-28T13:13:24.265Z,17.30
2022-09-28T13:15:57.613Z,17.60
2022-09-28T13:18:33.640Z,17.60
2022-09-28T13:21:11.193Z,17.60
2022-09-28T13:23:42.663Z,17.70
2022-09-28T13:26:20.490Z,17.80
2022-09-28T13:28:51.613Z,17.70
2022-09-28T13:31:23.536Z,17.80
2022-09-28T13:33:53.413Z,17.90
2022-09-28T13:36:47.142Z,17.80
2022-09-28T13:39:56.598Z,18.00
2022-09-28T13:42:32.251Z,18.30
2022-09-28T13:45:23.680Z,19.60
2022-09-28T13:48:04.805Z,19.80
2022-09-28T13:50:46.536Z,19.40
2022-09-28T13:53:23.318Z,19.40
2022-09-28T13:55:58.465Z,19.30
2022-09-28T13:58:29.311Z,19.10
2022-09-28T14:01:04.696Z,19.60
2022-09-28T14:03:44.932Z,20.70
2022-09-28T14:09:24.737Z,20.80
2022-09-28T14:12:00.135Z,20.80
2022-09-28T14:14:45.643Z,22.00
2022-09-28T14:17:50.450Z,22.00
2022-09-28T14:23:16.980Z,23.20
2022-09-28T14:25:46.719Z,23.00
2022-09-28T14:28:30.505Z,23.30
2022-09-28T14:30:59.588Z,23.60
2022-09-28T14:33:30.356Z,23.60
2022-09-28T14:36:04.010Z,23.30
2022-09-28T14:38:53.621Z,23.30
2022-09-28T14:41:34.594Z,23.40
2022-09-28T14:44:08.594Z,23.10
2022-09-28T14:46:38.821Z,23.60
2022-09-28T14:49:24.911Z,23.30
2022-09-28T14:52:04.488Z,23.10
2022-09-28T14:54:50.120Z,23.00
2022-09-28T14:57:21.465Z,22.90
2022-09-28T14:59:49.575Z,23.20
2022-09-28T15:02:23.929Z,24.20
2022-09-28T15:04:55.709Z,22.50
2022-09-28T15:07:28.815Z,22.10
2022-09-28T15:09:58.155Z,21.50
2022-09-28T15:12:28.654Z,21.20
2022-09-28T15:14:59.343Z,20.80
2022-09-28T15:17:30.379Z,20.60
2022-09-28T15:20:23.238Z,20.60
2022-09-28T15:22:56.990Z,20.70
2022-09-28T15:25:26.809Z,21.20
2022-09-28T15:27:56.404Z,20.90
2022-09-28T15:30:27.559Z,20.50
2022-09-28T15:33:17.596Z,19.90
2022-09-28T15:35:47.851Z,19.80
2022-09-28T15:38:18.440Z,19.80
2022-09-28T15:40:47.624Z,19.70
2022-09-28T15:43:30.223Z,19.60
2022-09-28T15:46:02.964Z,19.40
2022-09-28T15:48:34.440Z,19.10
2022-09-28T15:51:10.982Z,19.20
2022-09-28T15:53:48.000Z,19.10
2022-09-28T15:56:16.006Z,19.00
2022-09-28T15:58:44.628Z,18.80
2022-09-28T16:01:26.984Z,18.70
2022-09-28T16:03:55.150Z,18.50
2022-09-28T16:06:23.515Z,18.50
2022-09-28T16:08:53.811Z,18.40
2022-09-28T16:11:26.260Z,18.50
2022-09-28T16:14:04.464Z,18.70
2022-09-28T16:16:36.270Z,18.80
2022-09-28T16:19:04.693Z,18.60
2022-09-28T16:21:43.696Z,18.40
2022-09-28T16:24:23.246Z,18.40
2022-09-28T16:26:58.351Z,18.40
2022-09-28T16:29:28.855Z,18.50
2022-09-28T16:31:56.856Z,18.40
2022-09-28T16:34:28.626Z,18.30
2022-09-28T16:36:56.635Z,18.30
2022-09-28T16:39:26.013Z,18.20
2022-09-28T16:41:56.812Z,18.10
2022-09-28T16:44:28.445Z,17.80
2022-09-28T16:46:58.525Z,17.50
2022-09-28T16:49:28.293Z,17.30
2022-09-28T16:51:56.313Z,17.10
2022-09-28T16:54:43.642Z,17.00
2022-09-28T16:57:13.920Z,17.00
2022-09-28T16:59:42.085Z,16.90
2022-09-28T17:02:44.975Z,16.80
2022-09-28T17:05:10.240Z,16.70
2022-09-28T17:07:38.483Z,16.50
2022-09-28T17:10:16.425Z,16.40
2022-09-28T17:12:44.459Z,16.30
2022-09-28T17:15:12.769Z,16.30
2022-09-28T17:17:41.153Z,16.10
2022-09-28T17:20:21.991Z,16.00
2022-09-28T17:22:50.117Z,16.00
2022-09-28T17:25:19.515Z,15.80
2022-09-28T17:27:49.091Z,15.70
2022-09-28T17:30:21.161Z,15.50
2022-09-28T17:32:51.548Z,15.30
2022-09-28T17:35:25.137Z,15.20
2022-09-28T17:37:53.703Z,15.20
2022-09-28T17:40:25.062Z,15.10
2022-09-28T17:42:56.119Z,15.10
2022-09-28T17:45:25.829Z,14.90
2022-09-28T17:47:54.229Z,14.70
2022-09-28T17:50:25.511Z,14.60
2022-09-28T17:52:54.507Z,14.60
2022-09-28T17:55:27.390Z,14.60
2022-09-28T17:57:55.864Z,14.30
2022-09-28T18:00:27.427Z,14.10
2022-09-28T18:02:55.750Z,14.00
2022-09-28T18:05:24.879Z,13.90
2022-09-28T18:07:53.304Z,13.80
2022-09-28T18:10:26.291Z,13.80
2022-09-28T18:12:54.349Z,13.80
2022-09-28T18:15:22.398Z,13.70
2022-09-28T18:17:50.474Z,13.70
2022-09-28T18:20:18.934Z,13.60
2022-09-28T18:22:47.011Z,13.40
2022-09-28T18:25:15.138Z,13.30
2022-09-28T18:27:44.579Z,13.20
2022-09-28T18:30:13.104Z,13.10
2022-09-28T18:32:41.263Z,13.10
2022-09-28T18:35:11.226Z,13.10
2022-09-28T18:37:40.903Z,13.00
2022-09-28T18:40:10.874Z,12.80
2022-09-28T18:42:39.840Z,12.80
2022-09-28T18:45:11.761Z,12.80
2022-09-28T18:52:41.364Z,12.50
2022-09-28T18:55:10.146Z,12.40
2022-09-28T18:57:38.334Z,12.50
2022-09-28T19:00:08.256Z,12.50
2022-09-28T19:02:38.596Z,12.50
2022-09-28T19:05:07.751Z,12.40
2022-09-28T19:07:36.315Z,12.40
2022-09-28T19:10:04.806Z,12.30
2022-09-28T19:12:33.925Z,12.20
2022-09-28T19:15:01.952Z,12.30
2022-09-28T19:17:30.025Z,12.40
2022-09-28T19:19:59.431Z,12.40
2022-09-28T19:22:27.450Z,12.30
2022-09-28T19:24:56.157Z,12.30
2022-09-28T19:27:24.219Z,12.30
2022-09-28T19:29:52.750Z,12.10
2022-09-28T19:32:20.785Z,11.90
2022-09-28T19:34:48.822Z,11.80
2022-09-28T19:37:18.186Z,11.80
2022-09-28T19:39:46.512Z,9.50
2022-09-28T19:42:14.519Z,11.60
2022-09-28T19:44:43.646Z,11.60
2022-09-28T19:47:13.037Z,11.60
2022-09-28T19:49:42.028Z,11.60
2022-09-28T19:52:15.912Z,11.60
2022-09-28T19:54:52.141Z,11.50
2022-09-28T19:57:20.189Z,11.50
2022-09-28T19:59:52.361Z,11.40
2022-09-28T20:02:21.242Z,11.40
2022-09-28T20:04:49.514Z,11.40
2022-09-28T20:07:17.683Z,11.30
2022-09-28T20:09:47.079Z,11.30
2022-09-28T20:12:15.091Z,11.20
2022-09-28T20:14:43.128Z,11.20
2022-09-28T20:17:11.602Z,11.20
2022-09-28T20:19:39.678Z,11.10
2022-09-28T20:22:07.858Z,11.10
2022-09-28T20:24:35.923Z,11.00
2022-09-28T20:27:05.325Z,10.90
2022-09-28T20:29:33.804Z,11.00
2022-09-28T20:32:03.913Z,10.80
2022-09-28T20:34:33.561Z,10.70
2022-09-28T20:37:01.721Z,10.60
2022-09-28T20:39:29.777Z,10.70
2022-09-28T20:41:57.799Z,10.70
2022-09-28T20:44:27.359Z,10.60
2022-09-28T20:46:56.251Z,10.70
2022-09-28T20:49:24.373Z,10.70
2022-09-28T20:51:52.384Z,10.50
2022-09-28T20:54:21.806Z,10.40
2022-09-28T20:56:49.847Z,10.60
2022-09-28T20:59:17.889Z,10.50
2022-09-28T21:01:47.325Z,10.40
2022-09-28T21:04:15.678Z,10.30
2022-09-28T21:06:44.290Z,10.20
2022-09-28T21:09:13.297Z,10.30
2022-09-28T21:11:41.755Z,10.10
2022-09-28T21:14:10.820Z,10.10
2022-09-28T21:16:38.971Z,10.00
2022-09-28T21:19:08.419Z,10.00
2022-09-28T21:21:36.436Z,10.20
2022-09-28T21:24:04.539Z,10.10
2022-09-28T21:26:32.902Z,9.90
2022-09-28T21:29:02.265Z,9.90
2022-09-28T21:31:33.462Z,9.90
2022-09-28T21:34:01.723Z,9.80
2022-09-28T21:36:31.433Z,9.80
2022-09-28T21:38:59.526Z,9.70
2022-09-28T21:41:29.131Z,9.80
2022-09-28T21:43:57.455Z,9.90
2022-09-28T21:46:26.820Z,9.80
2022-09-28T21:48:55.228Z,9.70
2022-09-28T21:51:23.239Z,9.60
2022-09-28T21:53:54.103Z,9.70
2022-09-28T21:56:23.055Z,9.70
2022-09-28T21:58:51.343Z,9.60
2022-09-28T22:01:20.973Z,9.50
2022-09-28T22:03:51.072Z,9.40
2022-09-28T22:06:20.944Z,9.50
2022-09-28T22:08:50.543Z,9.40
2022-09-28T22:11:22.179Z,9.50
2022-09-28T22:13:52.344Z,9.40
2022-09-28T22:16:22.791Z,9.30
2022-09-28T22:18:51.377Z,9.30
2022-09-28T22:21:21.075Z,9.30
2022-09-28T22:23:49.830Z,9.40
2022-09-28T22:26:21.610Z,9.30
2022-09-28T22:28:50.901Z,9.20
2022-09-28T22:31:20.812Z,9.20
2022-09-28T22:33:49.008Z,9.20
2022-09-28T22:36:17.305Z,9.20
2022-09-28T22:38:45.754Z,9.20
2022-09-28T22:41:15.889Z,9.10
2022-09-28T22:43:45.312Z,9.20
2022-09-28T22:46:16.551Z,9.00
2022-09-28T22:48:48.009Z,9.00
2022-09-28T22:51:16.944Z,9.00
2022-09-28T22:53:45.440Z,8.90
2022-09-28T22:56:18.172Z,8.80
2022-09-28T22:58:48.572Z,8.90
2022-09-28T23:01:18.785Z,8.70
2022-09-28T23:03:47.844Z,8.70
2022-09-28T23:06:17.596Z,8.70
2022-09-28T23:08:47.277Z,8.80
2022-09-28T23:11:16.088Z,8.60
2022-09-28T23:13:44.533Z,8.70
2022-09-28T23:16:15.016Z,8.60
2022-09-28T23:18:43.674Z,8.70
2022-09-28T23:21:15.172Z,8.70
2022-09-28T23:23:43.266Z,8.60
2022-09-28T23:26:12.700Z,8.60
2022-09-28T23:28:41.148Z,8.50
2022-09-28T23:31:10.342Z,8.40
2022-09-28T23:33:39.744Z,8.50
2022-09-28T23:36:08.851Z,8.40
2022-09-28T23:38:36.913Z,8.40
2022-09-28T23:41:05.488Z,8.50
2022-09-28T23:43:33.595Z,8.50
2022-09-28T23:46:01.978Z,8.40
2022-09-28T23:48:30.244Z,8.50
2022-09-28T23:50:59.723Z,8.30
2022-09-28T23:53:28.284Z,8.40
2022-09-28T23:55:56.305Z,8.30
2022-09-28T23:58:25.734Z,8.30
